Time;durP1;ratioP1;P1;durP2;ratioP2;P2;SDS_P1;SDS_P2;PMS_P1;PMS_P2;Temp;Humidity;BMP_temperature;BMP_pressure;BME280_temperature;BME280_humidity;BME280_pressure;Samples;Min_cycle;Max_cycle;Signal;HPM_P1;HPM_P2
2023/03/23 00:00:54;;;;;;;6.32;3.58;;;;;;;10.18;100.00;100113.06;5284725;28;20385;-68
2023/03/23 00:03:28;;;;;;;7.07;3.60;;;;;;;10.19;100.00;100122.75;5283562;28;20106;-69
2023/03/23 00:06:04;;;;;;;7.47;3.72;;;;;;;10.20;100.00;100119.09;5293288;28;20462;-68
2023/03/23 00:08:44;;;;;;;5.80;3.50;;;;;;;10.24;100.00;100096.56;5295670;28;20672;-68
2023/03/23 00:11:22;;;;;;;7.88;3.25;;;;;;;10.19;100.00;100093.44;5288498;28;20055;-68
2023/03/23 00:13:53;;;;;;;6.72;3.45;;;;;;;10.28;100.00;100103.31;5302473;28;20027;-68
2023/03/23 00:16:31;;;;;;;8.05;3.47;;;;;;;10.26;100.00;100109.72;5294051;28;20019;-68
2023/03/23 00:19:06;;;;;;;8.52;3.80;;;;;;;10.21;100.00;100126.13;5289254;28;20024;-69
2023/03/23 00:21:38;;;;;;;;;;;;;;;10.25;100.00;100108.91;5284739;28;20054;-68
2023/03/23 00:24:18;;;;;;;7.53;3.67;;;;;;;10.28;100.00;100097.97;5289278;28;20163;-68
2023/03/23 00:26:51;;;;;;;8.23;3.75;;;;;;;10.29;100.00;100104.13;5290749;28;20498;-68
2023/03/23 00:29:22;;;;;;;6.70;3.30;;;;;;;10.24;100.00;100111.69;5296161;28;20111;-68
2023/03/23 00:31:56;;;;;;;9.52;4.05;;;;;;;10.19;100.00;100115.59;5293162;28;20111;-68
2023/03/23 00:34:32;;;;;;;8.10;4.20;;;;;;;10.26;100.00;100115.94;5293086;28;20024;-68
2023/03/23 00:37:03;;;;;;;6.70;3.95;;;;;;;10.23;100.00;100110.00;5283620;28;20341;-68
2023/03/23 00:39:36;;;;;;;6.18;3.63;;;;;;;10.27;100.00;100116.75;5287165;28;20103;-68
2023/03/23 00:42:08;;;;;;;7.07;3.50;;;;;;;10.27;100.00;100114.94;5285463;28;20123;-68
2023/03/23 00:44:39;;;;;;;6.97;3.90;;;;;;;10.31;100.00;100115.53;5285992;28;20165;-68
2023/03/23 00:47:12;;;;;;;7.35;3.75;;;;;;;10.34;100.00;100112.63;5288742;28;20482;-68
2023/03/23 00:49:43;;;;;;;7.18;4.20;;;;;;;10.31;100.00;100095.06;5289797;28;20051;-68
2023/03/23 00:52:15;;;;;;;7.50;4.22;;;;;;;10.34;100.00;100097.47;5290461;28;20040;-68
2023/03/23 00:54:46;;;;;;;7.78;4.30;;;;;;;10.38;100.00;100108.72;5289113;28;20053;-68
2023/03/23 00:57:17;;;;;;;7.05;4.35;;;;;;;10.33;100.00;100105.59;5285981;28;20036;-69
2023/03/23 00:59:49;;;;;;;7.72;4.53;;;;;;;10.34;100.00;100101.97;5283389;28;20024;-68
2023/03/23 01:02:24;;;;;;;8.45;4.10;;;;;;;10.33;100.00;100085.09;5287254;28;20401;-68
2023/03/23 01:04:56;;;;;;;8.05;4.25;;;;;;;10.37;100.00;100067.00;5289604;28;20028;-68
2023/03/23 01:07:30;;;;;;;7.97;4.32;;;;;;;10.37;100.00;100072.34;5285235;28;20673;-68
2023/03/23 01:10:03;;;;;;;6.00;4.07;;;;;;;10.33;100.00;100079.75;5289511;28;20028;-68
2023/03/23 01:12:34;;;;;;;6.72;4.30;;;;;;;10.36;100.00;100079.50;5285619;28;20025;-68
2023/03/23 01:15:06;;;;;;;6.85;4.45;;;;;;;10.42;100.00;100050.63;5284504;28;20032;-68
2023/03/23 01:17:37;;;;;;;7.78;4.25;;;;;;;10.39;100.00;100044.59;5293688;28;20038;-68
2023/03/23 01:20:10;;;;;;;7.45;4.70;;;;;;;10.36;100.00;100042.16;5293140;28;20032;-68
2023/03/23 01:22:42;;;;;;;6.80;4.60;;;;;;;10.45;100.00;100050.31;5285566;28;20489;-68
2023/03/23 01:25:14;;;;;;;7.72;4.20;;;;;;;10.39;100.00;100047.25;5299224;28;20032;-68
2023/03/23 01:27:46;;;;;;;6.00;4.20;;;;;;;10.34;100.00;100046.81;5287196;28;20051;-68
2023/03/23 01:30:17;;;;;;;6.53;4.10;;;;;;;10.35;100.00;100043.13;5292347;28;20032;-68
2023/03/23 01:32:49;;;;;;;7.18;4.25;;;;;;;10.37;100.00;100051.88;5283749;28;20024;-68
2023/03/23 01:35:21;;;;;;;5.93;4.30;;;;;;;10.43;100.00;100049.63;5284189;28;20401;-68
2023/03/23 01:37:52;;;;;;;7.05;4.30;;;;;;;10.38;100.00;100045.53;5278109;28;20035;-68
2023/03/23 01:40:27;;;;;;;5.25;3.83;;;;;;;10.43;100.00;100054.97;5282100;28;20032;-68
2023/03/23 01:42:58;;;;;;;9.52;4.40;;;;;;;10.40;100.00;100043.59;5280954;28;20271;-69
2023/03/23 01:45:34;;;;;;;5.65;4.00;;;;;;;10.36;100.00;100047.50;5284343;28;20139;-69
2023/03/23 01:48:20;;;;;;;6.78;4.03;;;;;;;10.44;100.00;100051.31;5288282;28;20071;-69
2023/03/23 01:50:57;;;;;;;7.70;4.13;;;;;;;10.43;100.00;100058.47;5296047;28;20031;-69
2023/03/23 01:53:33;;;;;;;6.43;4.10;;;;;;;10.45;100.00;100048.53;5291368;28;20051;-69
2023/03/23 01:56:08;;;;;;;6.03;4.22;;;;;;;10.46;100.00;100044.88;5287440;28;20024;-69
2023/03/23 01:58:41;;;;;;;6.25;4.32;;;;;;;10.44;100.00;100035.31;5286674;28;20024;-68
2023/03/23 02:01:15;;;;;;;7.35;4.30;;;;;;;10.49;100.00;100028.59;5280046;28;20024;-69
2023/03/23 02:03:48;;;;;;;;;;;;;;;10.52;100.00;100022.97;5280619;28;20040;-69
2023/03/23 02:06:20;;;;;;;8.23;4.53;;;;;;;10.50;100.00;100016.94;5282557;28;20439;-68
2023/03/23 02:08:52;;;;;;;6.72;4.28;;;;;;;10.51;100.00;100002.63;5284674;28;20420;-68
2023/03/23 02:11:24;;;;;;;6.80;4.32;;;;;;;10.46;100.00;100014.69;5284247;28;20096;-68
2023/03/23 02:13:56;;;;;;;6.25;3.95;;;;;;;10.47;100.00;100001.22;5285229;28;20033;-69
2023/03/23 02:16:36;;;;;;;9.30;3.83;;;;;;;10.53;100.00;99997.16;5281250;28;20439;-68
2023/03/23 02:19:20;;;;;;;8.75;4.13;;;;;;;10.52;100.00;99998.97;5279721;28;20108;-68
2023/03/23 02:21:54;;;;;;;7.60;4.10;;;;;;;10.53;100.00;99991.84;5281358;28;20024;-69
2023/03/23 02:24:42;;;;;;;6.15;4.15;;;;;;;10.55;100.00;99997.88;5279782;28;20031;-69
2023/03/23 02:27:29;;;;;;;7.80;4.55;;;;;;;10.55;100.00;100008.53;5277508;28;20055;-68
2023/03/23 02:30:35;;;;;;;7.20;4.00;;;;;;;10.55;100.00;100012.03;5284137;28;20071;-69
2023/03/23 02:33:22;;;;;;;5.75;3.78;;;;;;;10.50;100.00;100000.94;5282849;28;20386;-69
2023/03/23 02:36:02;;;;;;;7.90;4.10;;;;;;;10.52;100.00;99995.47;5280610;28;20028;-69
2023/03/23 02:38:55;;;;;;;7.55;4.00;;;;;;;10.54;100.00;99988.16;5285219;28;20029;-68
2023/03/23 02:41:39;;;;;;;5.78;3.42;;;;;;;10.57;100.00;99990.56;5287290;28;20032;-69
2023/03/23 02:44:14;;;;;;;5.47;3.53;;;;;;;10.53;100.00;99983.84;5286918;28;20038;-68
2023/03/23 02:46:46;;;;;;;5.00;3.72;;;;;;;10.57;100.00;99983.41;5285273;28;20041;-68
2023/03/23 02:49:20;;;;;;;6.50;3.78;;;;;;;10.58;100.00;99985.09;5284108;28;20025;-68
2023/03/23 02:51:53;;;;;;;6.65;3.88;;;;;;;10.63;100.00;99992.69;5285821;28;20552;-69
2023/03/23 02:54:26;;;;;;;6.30;4.10;;;;;;;10.68;100.00;99994.91;5286387;28;20540;-69
2023/03/23 02:56:58;;;;;;;6.80;3.80;;;;;;;10.72;100.00;99997.19;5280961;28;20081;-68
2023/03/23 02:59:29;;;;;;;7.53;3.78;;;;;;;10.72;100.00;99994.50;5284996;28;20027;-68
2023/03/23 03:02:14;;;;;;;6.88;3.72;;;;;;;10.75;100.00;99998.72;5286186;28;20115;-69
2023/03/23 03:04:54;;;;;;;5.40;3.53;;;;;;;10.77;100.00;99989.59;5287557;28;20111;-68
2023/03/23 03:07:40;;;;;;;5.35;3.30;;;;;;;10.81;100.00;99986.66;5285437;28;20497;-68
2023/03/23 03:10:22;;;;;;;4.82;3.42;;;;;;;10.85;100.00;99986.22;5285746;28;20039;-68
2023/03/23 03:12:56;;;;;;;5.97;3.35;;;;;;;10.84;100.00;99999.72;5284219;28;20027;-69
2023/03/23 03:15:35;;;;;;;7.57;3.83;;;;;;;10.87;100.00;99997.59;5291421;28;20071;-69
2023/03/23 03:18:16;;;;;;;6.90;3.53;;;;;;;10.86;100.00;99998.59;5282492;28;20036;-68
2023/03/23 03:20:55;;;;;;;7.03;3.80;;;;;;;10.88;100.00;99983.28;5296526;28;20466;-68
2023/03/23 03:23:28;;;;;;;4.78;3.40;;;;;;;10.84;100.00;99995.22;5289080;28;20474;-68
2023/03/23 03:26:04;;;;;;;5.82;3.80;;;;;;;10.85;100.00;100001.38;5294893;28;20039;-68
2023/03/23 03:28:36;;;;;;;7.50;4.05;;;;;;;10.81;100.00;99994.66;5288432;28;20032;-67
2023/03/23 03:31:08;;;;;;;5.57;3.20;;;;;;;10.82;100.00;99991.00;5289104;28;20027;-68
2023/03/23 03:33:39;;;;;;;4.85;3.03;;;;;;;10.83;100.00;99990.00;5283657;28;20024;-68
2023/03/23 03:36:16;;;;;;;7.05;3.50;;;;;;;10.85;100.00;99990.72;5289731;28;20039;-68
2023/03/23 03:38:50;;;;;;;5.82;3.50;;;;;;;10.86;100.00;99997.75;5283317;28;20474;-68
2023/03/23 03:41:21;;;;;;;6.07;3.85;;;;;;;10.92;100.00;99991.84;5294493;28;20053;-68
2023/03/23 03:43:52;;;;;;;8.48;3.60;;;;;;;10.91;100.00;100000.81;5297560;28;20031;-68
2023/03/23 03:46:26;;;;;;;6.95;3.13;;;;;;;10.88;100.00;99993.13;5286709;28;20032;-68
2023/03/23 03:48:59;;;;;;;5.85;3.15;;;;;;;10.90;100.00;99996.50;5288214;28;20112;-68
2023/03/23 03:51:32;;;;;;;6.53;3.20;;;;;;;10.92;100.00;99994.53;5293334;28;20160;-68
2023/03/23 03:54:03;;;;;;;5.50;2.85;;;;;;;10.94;100.00;99981.88;5285595;28;20036;-68
2023/03/23 03:56:40;;;;;;;6.93;2.97;;;;;;;10.93;100.00;99993.50;5284987;28;20038;-68
2023/03/23 03:59:12;;;;;;;5.43;3.30;;;;;;;10.92;100.00;100002.53;5288559;28;20051;-68
2023/03/23 04:01:43;;;;;;;6.35;3.00;;;;;;;10.90;100.00;100002.66;5281708;28;20024;-68
2023/03/23 04:04:15;;;;;;;5.50;2.72;;;;;;;10.92;100.00;100014.03;5290959;28;20032;-68
2023/03/23 04:06:48;;;;;;;7.18;2.80;;;;;;;10.94;100.00;100004.06;5284667;28;20434;-68
2023/03/23 04:09:21;;;;;;;6.55;2.70;;;;;;;10.95;100.00;100003.09;5290180;28;20497;-68
2023/03/23 04:11:52;;;;;;;6.63;2.30;;;;;;;10.92;100.00;99995.34;5284007;28;20112;-68
2023/03/23 04:14:24;;;;;;;6.03;2.40;;;;;;;10.92;100.00;100007.88;5287954;28;20057;-68
2023/03/23 04:16:56;;;;;;;6.55;2.30;;;;;;;10.95;100.00;100010.25;5283522;28;20035;-68
2023/03/23 04:19:28;;;;;;;7.57;2.65;;;;;;;10.89;100.00;100014.34;5290550;28;20024;-69
2023/03/23 04:21:59;;;;;;;7.05;2.40;;;;;;;10.93;100.00;100012.19;5286938;28;20478;-68
2023/03/23 04:24:33;;;;;;;6.00;2.08;;;;;;;10.92;100.00;100011.38;5284202;28;20035;-68
2023/03/23 04:27:04;;;;;;;8.27;1.90;;;;;;;10.95;100.00;100007.59;5297018;28;20059;-68
2023/03/23 04:29:36;;;;;;;9.02;2.10;;;;;;;10.95;100.00;100018.28;5283699;28;20316;-68
2023/03/23 04:32:08;;;;;;;6.97;2.20;;;;;;;10.93;100.00;100015.72;5289436;28;20063;-68
2023/03/23 04:34:40;;;;;;;7.63;2.25;;;;;;;10.94;100.00;100024.56;5287629;28;20028;-68
2023/03/23 04:37:13;;;;;;;7.15;1.95;;;;;;;10.95;100.00;100031.63;5288090;28;20206;-68
2023/03/23 04:39:45;;;;;;;7.25;2.17;;;;;;;10.95;100.00;100020.94;5289353;28;20032;-68
2023/03/23 04:42:16;;;;;;;7.05;2.08;;;;;;;10.97;100.00;100018.97;5283336;28;20083;-68
2023/03/23 04:44:54;;;;;;;7.07;1.90;;;;;;;10.93;100.00;100030.88;5279613;28;20720;-68
2023/03/23 04:47:29;;;;;;;4.25;1.60;;;;;;;10.92;100.00;100031.88;5288419;28;20031;-68
2023/03/23 04:50:01;;;;;;;6.50;1.92;;;;;;;10.93;100.00;100031.75;5282583;28;20028;-68
2023/03/23 04:52:32;;;;;;;7.78;2.20;;;;;;;10.93;100.00;100034.41;5284146;28;20025;-67
2023/03/23 04:55:06;;;;;;;5.53;1.65;;;;;;;10.94;100.00;100035.25;5285233;28;20032;-68
2023/03/23 04:57:38;;;;;;;8.13;2.58;;;;;;;10.92;100.00;100031.88;5281421;28;21141;-67
2023/03/23 05:00:14;;;;;;;5.05;1.35;;;;;;;10.96;100.00;100027.94;5286665;28;20131;-68
2023/03/23 05:02:46;;;;;;;6.25;1.52;;;;;;;10.95;100.00;100032.44;5279833;28;20490;-68
2023/03/23 05:05:20;;;;;;;8.43;2.40;;;;;;;10.93;100.00;100031.75;5289996;28;20158;-68
2023/03/23 05:07:51;;;;;;;10.77;1.73;;;;;;;10.90;100.00;100042.69;5282585;28;20144;-68
2023/03/23 05:10:23;;;;;;;6.53;2.00;;;;;;;10.91;100.00;100036.38;5285214;28;20031;-68
2023/03/23 05:12:55;;;;;;;6.18;1.48;;;;;;;10.92;100.00;100037.22;5291025;28;20066;-68
2023/03/23 05:15:26;;;;;;;8.68;2.10;;;;;;;10.89;100.00;100042.81;5284166;28;20059;-68
2023/03/23 05:17:58;;;;;;;5.78;1.65;;;;;;;10.91;100.00;100036.38;5282672;28;20031;-68
2023/03/23 05:20:30;;;;;;;5.80;1.65;;;;;;;10.93;100.00;100036.22;5300447;28;20020;-68
2023/03/23 05:23:01;;;;;;;6.30;1.27;;;;;;;10.88;100.00;100031.31;5281156;28;20020;-67
2023/03/23 05:25:36;;;;;;;6.72;1.60;;;;;;;10.86;100.00;100029.78;5283235;28;20032;-68
2023/03/23 05:28:10;;;;;;;6.43;1.70;;;;;;;10.87;100.00;100042.97;5284170;28;20414;-68
2023/03/23 05:30:44;;;;;;;8.60;1.92;;;;;;;10.89;100.00;100048.16;5287211;28;20028;-68
2023/03/23 05:33:15;;;;;;;5.82;1.60;;;;;;;10.86;100.00;100051.13;5281077;28;20024;-68
2023/03/23 05:35:48;;;;;;;6.88;1.77;;;;;;;10.83;100.00;100043.38;5282392;28;20034;-67
2023/03/23 05:38:19;;;;;;;8.93;2.03;;;;;;;10.80;100.00;100039.19;5281006;28;20024;-68
2023/03/23 05:40:52;;;;;;;6.20;1.73;;;;;;;10.79;100.00;100042.81;5280888;28;20495;-67
2023/03/23 05:43:23;;;;;;;6.57;2.03;;;;;;;10.75;100.00;100047.59;5284080;28;20028;-68
2023/03/23 05:45:55;;;;;;;10.63;2.45;;;;;;;10.72;100.00;100041.69;5292889;28;20088;-68
2023/03/23 05:48:27;;;;;;;6.50;1.80;;;;;;;10.72;100.00;100044.34;5281658;28;20489;-68
2023/03/23 05:50:58;;;;;;;8.98;1.90;;;;;;;10.71;100.00;100048.00;5289529;28;20016;-67
2023/03/23 05:53:30;;;;;;;6.72;1.73;;;;;;;10.70;100.00;100049.84;5278640;28;20024;-68
2023/03/23 05:56:03;;;;;;;7.20;1.98;;;;;;;10.69;100.00;100045.47;5287859;28;20444;-68
2023/03/23 05:58:34;;;;;;;9.18;2.70;;;;;;;10.68;100.00;100046.47;5281286;28;20036;-67
2023/03/23 06:01:07;;;;;;;8.52;2.10;;;;;;;10.64;100.00;100045.03;5288037;28;20039;-67
2023/03/23 06:03:38;;;;;;;8.98;2.20;;;;;;;10.66;100.00;100052.91;5284199;28;20436;-68
2023/03/23 06:06:11;;;;;;;7.88;2.10;;;;;;;10.66;100.00;100048.44;5288747;28;20031;-68
2023/03/23 06:08:42;;;;;;;7.50;2.10;;;;;;;10.71;100.00;100051.50;5288831;28;20408;-68
2023/03/23 06:11:14;;;;;;;7.65;2.17;;;;;;;10.66;100.00;100047.56;5306877;28;20028;-68
2023/03/23 06:13:45;;;;;;;9.43;2.65;;;;;;;10.66;100.00;100047.56;5315135;28;20027;-68
2023/03/23 06:16:17;;;;;;;11.85;3.58;;;;;;;10.67;100.00;100059.94;5294857;28;20031;-68
2023/03/23 06:18:49;;;;;;;9.85;2.85;;;;;;;10.69;100.00;100061.47;5289967;28;20138;-68
2023/03/23 06:21:21;;;;;;;8.88;2.20;;;;;;;10.71;100.00;100072.84;5290411;28;20497;-68
2023/03/23 06:23:53;;;;;;;10.05;2.20;;;;;;;10.71;100.00;100078.19;5297600;28;20035;-68
2023/03/23 06:26:37;;;;;;;9.02;2.25;;;;;;;10.74;100.00;100077.09;5282196;28;20039;-68
2023/03/23 06:29:11;;;;;;;6.85;2.45;;;;;;;10.74;100.00;100082.44;5291270;28;20111;-68
2023/03/23 06:31:47;;;;;;;11.80;2.17;;;;;;;10.79;100.00;100090.84;5288576;28;20015;-68
2023/03/23 06:34:18;;;;;;;9.20;2.28;;;;;;;10.77;100.00;100088.31;5270887;28;20042;-68
2023/03/23 06:36:50;;;;;;;7.80;1.90;;;;;;;10.78;100.00;100098.03;5287806;28;20354;-68
2023/03/23 06:39:22;;;;;;;7.07;1.85;;;;;;;10.77;100.00;100088.31;5289416;28;20034;-68
2023/03/23 06:41:53;;;;;;;9.43;2.05;;;;;;;10.82;100.00;100095.91;5293169;28;20469;-68
2023/03/23 06:44:25;;;;;;;7.57;1.95;;;;;;;10.82;100.00;100101.25;5284572;28;20032;-68
2023/03/23 06:46:56;;;;;;;8.55;1.80;;;;;;;10.88;100.00;100111.38;5285666;28;20036;-68
2023/03/23 06:49:28;;;;;;;7.57;1.73;;;;;;;10.88;100.00;100113.22;5288625;28;20424;-68
2023/03/23 06:52:03;;;;;;;8.48;2.00;;;;;;;10.90;100.00;100117.41;5295672;28;20113;-68
2023/03/23 06:54:34;;;;;;;7.00;1.75;;;;;;;10.91;100.00;100118.25;5287727;28;20043;-68
2023/03/23 06:57:06;;;;;;;5.13;1.50;;;;;;;10.91;100.00;100136.94;5295389;28;20051;-68
2023/03/23 06:59:37;;;;;;;10.20;2.15;;;;;;;10.93;100.00;100135.84;5293300;28;20032;-67
2023/03/23 07:02:13;;;;;;;5.68;1.70;;;;;;;10.91;100.00;100124.47;5292545;28;20059;-68
2023/03/23 07:04:45;;;;;;;7.10;1.83;;;;;;;10.90;100.00;100133.44;5290299;28;20031;-67
2023/03/23 07:07:18;;;;;;;9.70;1.92;;;;;;;10.86;100.00;100132.03;5292707;28;20537;-68
2023/03/23 07:09:49;;;;;;;9.95;2.13;;;;;;;10.82;100.00;100135.13;5292845;28;20426;-68
2023/03/23 07:12:21;;;;;;;9.38;2.42;;;;;;;10.75;100.00;100142.81;5296546;28;20107;-68
2023/03/23 07:14:52;;;;;;;6.25;2.13;;;;;;;10.67;100.00;100146.16;5289346;28;20064;-67
2023/03/23 07:17:24;;;;;;;9.95;2.90;;;;;;;10.61;100.00;100162.69;5296031;28;20067;-68
2023/03/23 07:19:56;;;;;;;6.30;2.10;;;;;;;10.53;100.00;100173.22;5282973;28;20032;-68
2023/03/23 07:22:27;;;;;;;8.70;2.22;;;;;;;10.45;100.00;100178.34;5292023;28;20363;-68
2023/03/23 07:24:58;;;;;;;6.53;2.08;;;;;;;10.37;100.00;100182.53;5290926;28;20060;-68
2023/03/23 07:27:30;;;;;;;7.53;2.10;;;;;;;10.34;100.00;100182.78;5289286;28;20048;-68
2023/03/23 07:30:01;;;;;;;11.15;2.13;;;;;;;10.28;100.00;100201.97;5287139;28;20533;-67
2023/03/23 07:32:33;;;;;;;9.63;2.63;;;;;;;10.23;100.00;100209.50;5285033;28;20035;-66
2023/03/23 07:35:07;;;;;;;9.88;2.50;;;;;;;10.18;100.00;100215.22;5284806;28;20190;-66
2023/03/23 07:37:38;;;;;;;13.48;2.70;;;;;;;10.12;100.00;100214.88;5293886;28;20036;-64
2023/03/23 07:40:14;;;;;;;5.07;1.20;;;;;;;9.86;100.00;100201.13;5290280;28;20032;-65
2023/03/23 07:42:52;;;;;;;7.20;1.65;;;;;;;9.71;100.00;100181.94;5293270;28;20482;-66
2023/03/23 07:45:24;;;;;;;4.60;1.48;;;;;;;9.61;100.00;100182.69;5282051;28;20033;-66
2023/03/23 07:47:56;;;;;;;6.57;1.55;;;;;;;9.58;100.00;100179.44;5289046;28;20032;-66
2023/03/23 07:50:27;;;;;;;6.50;1.50;;;;;;;9.60;100.00;100188.97;5290255;28;20024;-66
2023/03/23 07:52:58;;;;;;;4.88;1.20;;;;;;;9.56;100.00;100187.53;5291980;28;20109;-67
2023/03/23 07:55:30;;;;;;;7.05;2.00;;;;;;;9.57;100.00;100199.06;5282457;28;20046;-66
2023/03/23 07:58:01;;;;;;;5.13;1.77;;;;;;;9.54;100.00;100200.13;5287903;28;20043;-66
2023/03/23 08:00:32;;;;;;;6.10;1.52;;;;;;;9.56;100.00;100216.00;5286787;28;20102;-66
2023/03/23 08:03:06;;;;;;;6.57;1.60;;;;;;;9.49;100.00;100218.34;5286745;28;20039;-66
2023/03/23 08:05:37;;;;;;;5.85;1.20;;;;;;;9.44;100.00;100214.34;5281456;28;20059;-66
2023/03/23 08:08:09;;;;;;;7.85;1.40;;;;;;;9.40;100.00;100224.41;5281837;28;20279;-66
2023/03/23 08:10:40;;;;;;;4.03;1.00;;;;;;;9.34;100.00;100232.88;5285271;28;20070;-67
2023/03/23 08:13:12;;;;;;;4.97;1.30;;;;;;;9.31;100.00;100243.78;5284598;28;20028;-67
2023/03/23 08:15:44;;;;;;;4.82;1.25;;;;;;;9.28;100.00;100254.66;5291727;28;20542;-66
2023/03/23 08:18:15;;;;;;;5.15;1.40;;;;;;;9.29;100.00;100243.06;5289203;28;20490;-66
2023/03/23 08:20:48;;;;;;;5.30;1.00;;;;;;;9.33;100.00;100236.53;5286644;28;20167;-66
2023/03/23 08:23:20;;;;;;;5.55;1.13;;;;;;;9.27;100.00;100237.03;5289930;28;20032;-67
2023/03/23 08:25:51;;;;;;;6.47;1.17;;;;;;;9.28;100.00;100236.03;5291667;28;20039;-67
2023/03/23 08:28:23;;;;;;;4.78;0.80;;;;;;;9.24;100.00;100230.13;5289024;28;20375;-67
2023/03/23 08:30:54;;;;;;;4.45;0.90;;;;;;;9.23;100.00;100239.09;5293748;28;20043;-66
2023/03/23 08:33:27;;;;;;;5.38;1.25;;;;;;;9.28;100.00;100236.03;5292752;28;20031;-67
2023/03/23 08:36:00;;;;;;;5.20;1.20;;;;;;;9.27;100.00;100237.03;5294319;28;20055;-67
2023/03/23 08:38:32;;;;;;;4.85;1.33;;;;;;;9.25;100.00;100233.66;5290226;28;20032;-67
2023/03/23 08:41:05;;;;;;;5.00;1.10;;;;;;;9.31;100.00;100233.13;5287390;28;20383;-67
2023/03/23 08:43:37;;;;;;;3.90;0.97;;;;;;;9.33;100.00;100232.03;5293131;28;20052;-67
2023/03/23 08:46:10;;;;;;;4.68;1.30;;;;;;;9.46;100.00;100236.38;5290386;28;20119;-67
2023/03/23 08:48:43;;;;;;;5.82;1.30;;;;;;;9.46;100.00;100239.03;5290867;28;20028;-67
2023/03/23 08:51:15;;;;;;;7.13;2.25;;;;;;;9.49;100.00;100244.97;5291368;28;20057;-67
2023/03/23 08:53:46;;;;;;;6.63;2.47;;;;;;;9.47;100.00;100249.53;5290798;28;20020;-67
2023/03/23 08:56:18;;;;;;;7.63;2.00;;;;;;;9.52;100.00;100247.34;5286553;28;20027;-67
2023/03/23 08:58:49;;;;;;;9.18;3.70;;;;;;;9.56;100.00;100250.63;5285881;28;20502;-68
2023/03/23 09:01:21;;;;;;;8.63;3.15;;;;;;;9.55;100.00;100255.13;5283754;28;20490;-67
2023/03/23 09:03:52;;;;;;;7.03;1.73;;;;;;;9.57;100.00;100265.66;5288903;28;20035;-68
2023/03/23 09:06:24;;;;;;;6.35;1.80;;;;;;;9.58;100.00;100259.31;5290459;28;20053;-67
2023/03/23 09:08:55;;;;;;;4.88;1.65;;;;;;;9.59;100.00;100243.22;5292433;28;20024;-67
2023/03/23 09:11:27;;;;;;;6.18;1.60;;;;;;;9.65;100.00;100241.03;5292195;28;20370;-67
2023/03/23 09:13:58;;;;;;;7.65;1.60;;;;;;;9.74;100.00;100234.94;5292323;28;20083;-67
2023/03/23 09:16:31;;;;;;;6.18;1.30;;;;;;;9.81;100.00;100241.44;5278563;28;20032;-67
2023/03/23 09:19:02;;;;;;;4.95;1.73;;;;;;;9.84;100.00;100248.34;5292446;28;20059;-67
2023/03/23 09:21:33;;;;;;;3.75;1.20;;;;;;;9.86;100.00;100252.59;5285069;28;20036;-68
2023/03/23 09:24:05;;;;;;;5.65;1.65;;;;;;;9.87;100.00;100264.06;5291576;28;20486;-68
2023/03/23 09:26:37;;;;;;;4.70;1.35;;;;;;;9.93;100.00;100253.78;5282466;28;20124;-68
2023/03/23 09:29:08;;;;;;;5.28;1.40;;;;;;;9.92;100.00;100252.06;5292041;28;20077;-68
2023/03/23 09:31:41;;;;;;;4.03;1.25;;;;;;;9.98;100.00;100245.38;5289093;28;20490;-68
2023/03/23 09:34:15;;;;;;;5.22;1.33;;;;;;;9.97;100.00;100241.00;5291406;28;20027;-68
2023/03/23 09:36:46;;;;;;;8.77;2.25;;;;;;;9.96;100.00;100247.31;5289456;28;20110;-68
2023/03/23 09:39:18;;;;;;;5.10;1.30;;;;;;;10.05;100.00;100253.69;5288294;28;20156;-68
2023/03/23 09:42:08;;;;;;;5.35;1.48;;;;;;;10.11;100.00;100266.53;5291809;28;20028;-68
2023/03/23 09:44:48;;;;;;;5.28;1.38;;;;;;;10.10;100.00;100268.31;5288539;28;20039;-68
2023/03/23 09:47:32;;;;;;;5.80;1.33;;;;;;;10.17;100.00;100263.34;5289088;28;20389;-68
2023/03/23 09:50:26;;;;;;;4.47;1.20;;;;;;;10.21;100.00;100273.59;5286687;28;20517;-68
2023/03/23 09:53:05;;;;;;;5.43;1.45;;;;;;;10.20;100.00;100266.59;5288551;28;20107;-68
2023/03/23 09:55:37;;;;;;;3.85;1.20;;;;;;;10.19;100.00;100270.22;5294882;28;20035;-68
2023/03/23 09:58:18;;;;;;;6.82;1.35;;;;;;;10.23;100.00;100256.66;5292214;28;20055;-68
2023/03/23 10:00:55;;;;;;;5.38;1.52;;;;;;;10.28;100.00;100265.94;5282947;28;20040;-69
2023/03/23 10:03:31;;;;;;;4.80;1.50;;;;;;;10.34;100.00;100265.47;5289882;28;20038;-69
2023/03/23 10:06:04;;;;;;;7.25;1.52;;;;;;;10.31;100.00;100262.19;5286542;28;20036;-69
2023/03/23 10:08:39;;;;;;;6.55;1.92;;;;;;;10.36;100.00;100260.00;5283191;28;20030;-68
2023/03/23 10:11:31;;;;;;;5.40;1.40;;;;;;;10.40;100.00;100272.09;5272305;28;20108;-68
2023/03/23 10:14:23;;;;;;;7.03;1.70;;;;;;;10.53;100.00;100267.41;5292767;28;20032;-68
2023/03/23 10:17:00;;;;;;;6.18;1.70;;;;;;;10.52;100.00;100265.69;5287481;28;20126;-69
2023/03/23 10:19:51;;;;;;;5.20;1.80;;;;;;;10.57;100.00;100276.81;5300838;28;20070;-69
2023/03/23 10:22:37;;;;;;;5.70;2.22;;;;;;;10.70;100.00;100275.75;5291965;28;20056;-69
2023/03/23 10:25:11;;;;;;;5.43;2.10;;;;;;;10.83;100.00;100272.88;5289463;28;20367;-68
2023/03/23 10:27:53;;;;;;;5.88;1.73;;;;;;;10.90;100.00;100277.56;5285124;28;20128;-69
2023/03/23 10:30:33;;;;;;;5.10;1.52;;;;;;;10.91;100.00;100291.75;5291130;28;20104;-70
2023/03/23 10:33:13;;;;;;;5.88;1.92;;;;;;;10.95;100.00;100287.84;5285736;28;20036;-69
2023/03/23 10:36:00;;;;;;;6.13;1.83;;;;;;;10.99;100.00;100281.25;5286385;28;20036;-70
2023/03/23 10:38:41;;;;;;;5.53;2.10;;;;;;;11.10;100.00;100293.66;5290046;28;20085;-69
2023/03/23 10:41:16;;;;;;;6.88;2.10;;;;;;;11.25;100.00;100281.63;5285131;28;20394;-70
2023/03/23 10:43:52;;;;;;;9.10;3.03;;;;;;;11.27;100.00;100278.81;5286348;28;20028;-69
2023/03/23 10:46:48;;;;;;;6.78;1.85;;;;;;;11.29;100.00;100269.69;5288796;28;20027;-69
2023/03/23 10:49:24;;;;;;;7.43;1.85;;;;;;;11.31;100.00;100262.41;5292064;28;20083;-69
2023/03/23 10:52:37;;;;;;;8.05;1.80;;;;;;;11.40;100.00;100273.25;5284518;28;20052;-69
2023/03/23 10:55:15;;;;;;;7.97;2.28;;;;;;;11.50;100.00;100282.09;5289830;28;20043;-69
2023/03/23 10:58:05;;;;;;;5.47;2.20;;;;;;;11.56;100.00;100276.22;5286438;28;20036;-69
2023/03/23 11:00:44;;;;;;;6.63;2.00;;;;;;;11.59;100.00;100262.59;5289808;28;20659;-69
2023/03/23 11:03:15;;;;;;;6.00;1.83;;;;;;;11.69;100.00;100270.63;5292337;28;20024;-70
2023/03/23 11:05:57;;;;;;;6.63;2.17;;;;;;;11.77;100.00;100268.09;5294671;28;20024;-69
2023/03/23 11:08:33;;;;;;;7.38;2.08;;;;;;;11.86;100.00;100255.72;5291620;28;20386;-69
2023/03/23 11:11:15;;;;;;;6.88;1.70;;;;;;;11.94;100.00;100262.06;5294239;28;20549;-69
2023/03/23 11:13:51;;;;;;;10.38;2.13;;;;;;;11.98;100.00;100259.13;5289760;28;20482;-69
2023/03/23 11:16:28;;;;;;;9.20;2.05;;;;;;;12.00;100.00;100257.16;5291399;28;20032;-69
2023/03/23 11:19:11;;;;;;;7.80;1.70;;;;;;;12.05;100.00;100249.56;5288854;28;20024;-69
2023/03/23 11:21:51;;;;;;;8.27;2.30;;;;;;;12.15;100.00;100253.06;5286820;28;20029;-69
2023/03/23 11:24:26;;;;;;;10.07;1.77;;;;;;;12.29;100.00;100258.00;5294080;28;20077;-69
2023/03/23 11:26:58;;;;;;;6.30;1.38;;;;;;;12.33;100.00;100258.53;5286134;28;20056;-69
2023/03/23 11:29:30;;;;;;;6.38;1.60;;;;;;;12.39;100.00;100276.69;5284855;28;20043;-69
2023/03/23 11:32:07;;;;;;;5.68;1.45;;;;;;;12.44;100.00;100278.94;5288244;28;20027;-69
2023/03/23 11:34:45;;;;;;;5.10;1.10;;;;;;;12.53;100.00;100283.44;5288036;28;20130;-68
2023/03/23 11:37:40;;;;;;;6.85;1.50;;;;;;;12.54;100.00;100271.72;5286321;28;20028;-69
2023/03/23 11:40:18;;;;;;;5.22;1.40;;;;;;;12.58;100.00;100278.50;5287894;28;20036;-69
2023/03/23 11:43:13;;;;;;;4.97;1.45;;;;;;;12.63;100.00;100278.06;5285449;28;20460;-69
2023/03/23 11:45:49;;;;;;;;;;;;;;;12.67;100.00;100282.97;5281282;28;20032;-70
2023/03/23 11:48:48;;;;;;;4.70;1.30;;;;;;;12.81;100.00;100275.44;5293625;28;19927;-68
2023/03/23 11:51:41;;;;;;;6.43;1.70;;;;;;;12.89;100.00;100287.13;5283734;28;20076;-68
2023/03/23 11:54:38;;;;;;;3.95;1.30;;;;;;;12.97;100.00;100285.56;5288762;28;20032;-69